createdAt,value
2019-02-24T00:02:10.899Z,25.90
2019-02-24T00:04:40.703Z,25.23
2019-02-24T00:07:10.199Z,25.27
2019-02-24T00:09:40.249Z,28.30
2019-02-24T00:12:10.294Z,27.48
2019-02-24T00:14:39.895Z,30.05
2019-02-24T00:17:12.393Z,33.00
2019-02-24T00:19:42.363Z,28.25
2019-02-24T00:22:11.942Z,32.65
2019-02-24T00:24:41.616Z,25.57
2019-02-24T00:27:11.204Z,34.38
2019-02-24T00:29:40.789Z,32.35
2019-02-24T00:32:10.307Z,26.17
2019-02-24T00:34:39.971Z,32.28
2019-02-24T00:37:09.511Z,32.28
2019-02-24T00:39:39.151Z,34.43
2019-02-24T00:42:08.850Z,28.57
2019-02-24T00:44:38.455Z,38.28
2019-02-24T00:47:07.975Z,32.17
2019-02-24T00:49:38.143Z,28.20
2019-02-24T00:52:08.229Z,34.30
2019-02-24T00:54:37.751Z,30.97
2019-02-24T00:57:07.306Z,32.25
2019-02-24T00:59:36.835Z,33.20
2019-02-24T01:02:06.608Z,38.53
2019-02-24T01:04:36.798Z,28.42
2019-02-24T01:07:06.580Z,34.00
2019-02-24T01:09:36.526Z,33.83
2019-02-24T01:12:06.478Z,33.02
2019-02-24T01:14:36.382Z,32.48
2019-02-24T01:17:06.259Z,27.75
2019-02-24T01:19:36.243Z,30.80
2019-02-24T01:22:06.159Z,29.15
2019-02-24T01:24:35.771Z,37.95
2019-02-24T01:27:05.518Z,37.42
2019-02-24T01:29:35.231Z,29.48
2019-02-24T01:32:05.327Z,36.75
2019-02-24T01:34:34.846Z,38.08
2019-02-24T01:37:04.438Z,34.15
2019-02-24T01:39:34.020Z,33.58
2019-02-24T01:42:03.637Z,33.30
2019-02-24T01:44:33.175Z,40.28
2019-02-24T01:47:02.770Z,37.83
2019-02-24T01:49:34.435Z,33.30
2019-02-24T01:52:04.041Z,36.60
2019-02-24T01:54:33.545Z,35.23
2019-02-24T01:57:03.179Z,39.13
2019-02-24T01:59:32.770Z,31.57
2019-02-24T02:02:02.359Z,34.50
2019-02-24T02:04:34.015Z,35.73
2019-02-24T02:07:05.803Z,33.33
2019-02-24T02:09:35.410Z,38.17
2019-02-24T02:12:05.329Z,34.10
2019-02-24T02:14:35.302Z,31.00
2019-02-24T02:17:04.963Z,32.03
2019-02-24T02:19:34.615Z,30.72
2019-02-24T02:22:04.204Z,37.90
2019-02-24T02:24:33.747Z,31.73
2019-02-24T02:27:03.303Z,35.75
2019-02-24T02:29:32.823Z,36.00
2019-02-24T02:32:02.470Z,31.55
2019-02-24T02:34:34.898Z,29.10
2019-02-24T02:37:04.444Z,32.65
2019-02-24T02:39:34.029Z,31.40
2019-02-24T02:42:03.595Z,36.65
2019-02-24T02:44:33.101Z,30.77
2019-02-24T02:47:02.629Z,37.73
2019-02-24T02:49:32.173Z,33.45
2019-02-24T02:52:01.772Z,36.70
2019-02-24T02:54:31.279Z,35.73
2019-02-24T02:57:01.288Z,34.03
2019-02-24T02:59:30.805Z,36.63
2019-02-24T03:02:00.411Z,35.17
2019-02-24T03:04:41.007Z,33.30
2019-02-24T03:07:12.223Z,33.25
2019-02-24T03:09:41.754Z,33.13
2019-02-24T03:12:12.452Z,31.45
2019-02-24T03:14:42.097Z,32.23
2019-02-24T03:17:11.611Z,32.75
2019-02-24T03:19:41.188Z,39.23
2019-02-24T03:22:10.701Z,41.42
2019-02-24T03:24:40.223Z,39.00
2019-02-24T03:27:09.756Z,39.58
2019-02-24T03:29:39.552Z,34.95
2019-02-24T03:32:09.370Z,34.30
2019-02-24T03:34:39.638Z,36.85
2019-02-24T03:37:09.495Z,40.55
2019-02-24T03:39:39.373Z,35.05
2019-02-24T03:42:09.135Z,45.98
2019-02-24T03:44:38.647Z,37.38
2019-02-24T03:47:08.186Z,38.88
2019-02-24T03:49:38.999Z,33.10
2019-02-24T03:52:08.536Z,32.93
2019-02-24T03:54:38.141Z,37.05
2019-02-24T03:57:07.848Z,31.52
2019-02-24T03:59:37.504Z,31.00
2019-02-24T04:02:07.232Z,31.87
2019-02-24T04:04:37.281Z,34.83
2019-02-24T04:07:06.791Z,32.83
2019-02-24T04:09:36.343Z,32.08
2019-02-24T04:12:05.916Z,36.15
2019-02-24T04:14:35.442Z,33.83
2019-02-24T04:17:05.024Z,36.63
2019-02-24T04:19:35.018Z,40.58
2019-02-24T04:22:06.080Z,34.38
2019-02-24T04:24:35.601Z,34.98
2019-02-24T04:27:05.166Z,33.28
2019-02-24T04:29:34.686Z,34.33
2019-02-24T04:32:05.835Z,34.90
2019-02-24T04:34:36.798Z,35.23
2019-02-24T04:37:06.305Z,33.65
2019-02-24T04:39:35.835Z,39.10
2019-02-24T04:42:05.519Z,33.08
2019-02-24T04:44:35.036Z,41.83
2019-02-24T04:47:04.627Z,30.95
2019-02-24T04:49:34.195Z,34.88
2019-02-24T04:52:03.815Z,37.78
2019-02-24T04:54:33.323Z,44.90
2019-02-24T04:57:03.075Z,37.45
2019-02-24T04:59:34.935Z,34.40
2019-02-24T05:02:04.123Z,32.55
2019-02-24T05:04:33.752Z,31.70
2019-02-24T05:07:04.911Z,34.67
2019-02-24T05:09:34.497Z,35.05
2019-02-24T05:12:04.547Z,33.80
2019-02-24T05:14:35.608Z,37.25
2019-02-24T05:17:07.552Z,32.88
2019-02-24T05:19:37.192Z,36.45
2019-02-24T05:22:06.678Z,38.10
2019-02-24T05:24:36.183Z,36.20
2019-02-24T05:27:08.348Z,34.48
2019-02-24T05:29:45.124Z,30.75
2019-02-24T05:32:09.140Z,32.13
2019-02-24T05:34:38.680Z,36.45
2019-02-24T05:37:08.274Z,40.10
2019-02-24T05:39:37.812Z,34.67
2019-02-24T05:42:07.422Z,42.33
2019-02-24T05:44:37.149Z,35.63
2019-02-24T05:47:06.661Z,32.73
2019-02-24T05:49:36.294Z,39.03
2019-02-24T05:52:05.952Z,37.05
2019-02-24T05:54:38.221Z,36.35
2019-02-24T05:57:07.844Z,33.08
2019-02-24T05:59:37.387Z,35.05
2019-02-24T06:02:06.887Z,31.35
2019-02-24T06:04:36.701Z,31.05
2019-02-24T06:07:06.277Z,38.50
2019-02-24T06:09:35.808Z,33.58
2019-02-24T06:12:05.422Z,37.10
2019-02-24T06:14:37.857Z,41.90
2019-02-24T06:17:07.444Z,36.25
2019-02-24T06:19:37.173Z,35.48
2019-02-24T06:22:06.833Z,41.88
2019-02-24T06:24:36.368Z,40.40
2019-02-24T06:27:07.507Z,35.75
2019-02-24T06:29:37.205Z,33.35
2019-02-24T06:32:08.154Z,32.90
2019-02-24T06:34:38.193Z,35.28
2019-02-24T06:37:07.863Z,44.83
2019-02-24T06:39:37.440Z,33.85
2019-02-24T06:42:07.297Z,35.73
2019-02-24T06:44:37.267Z,39.53
2019-02-24T06:47:06.871Z,46.08
2019-02-24T06:49:36.948Z,36.20
2019-02-24T06:52:06.652Z,32.33
2019-02-24T06:54:36.359Z,38.58
2019-02-24T06:57:06.478Z,35.83
2019-02-24T06:59:36.139Z,31.62
2019-02-24T07:02:05.824Z,32.45
2019-02-24T07:04:35.501Z,32.98
2019-02-24T07:07:05.299Z,31.20
2019-02-24T07:09:34.961Z,32.50
2019-02-24T07:12:05.030Z,36.23
2019-02-24T07:14:34.749Z,41.80
2019-02-24T07:17:06.915Z,37.67
2019-02-24T07:19:36.715Z,34.65
2019-02-24T07:22:06.362Z,39.60
2019-02-24T07:24:35.986Z,35.92
2019-02-24T07:27:08.825Z,33.30
2019-02-24T07:29:38.999Z,34.35
2019-02-24T07:32:08.868Z,40.13
2019-02-24T07:34:38.653Z,30.63
2019-02-24T07:37:12.966Z,35.87
2019-02-24T07:39:39.860Z,31.70
2019-02-24T07:42:09.919Z,34.90
2019-02-24T07:44:39.639Z,32.83
2019-02-24T07:47:09.689Z,34.60
2019-02-24T07:49:39.433Z,29.13
2019-02-24T07:52:09.065Z,34.10
2019-02-24T07:54:38.815Z,36.20
2019-02-24T07:57:08.756Z,36.57
2019-02-24T07:59:38.515Z,32.30
2019-02-24T08:02:08.207Z,36.70
2019-02-24T08:04:39.330Z,35.67
2019-02-24T08:07:09.123Z,32.60
2019-02-24T08:09:38.662Z,29.43
2019-02-24T08:12:08.357Z,36.77
2019-02-24T08:14:38.058Z,29.50
2019-02-24T08:17:07.794Z,33.43
2019-02-24T08:19:37.672Z,33.37
2019-02-24T08:22:07.285Z,33.03
2019-02-24T08:24:36.887Z,27.40
2019-02-24T08:27:07.050Z,30.10
2019-02-24T08:29:36.771Z,30.63
2019-02-24T08:32:08.103Z,26.73
2019-02-24T08:34:37.709Z,31.43
2019-02-24T08:37:07.392Z,28.30
2019-02-24T08:39:40.255Z,26.47
2019-02-24T08:42:10.279Z,30.40
2019-02-24T08:44:39.990Z,25.67
2019-02-24T08:47:09.704Z,26.43
2019-02-24T08:49:39.403Z,33.13
2019-02-24T08:52:09.135Z,24.17
2019-02-24T08:54:58.142Z,27.67
2019-02-24T08:57:27.758Z,24.20
2019-02-24T08:59:57.393Z,25.27
2019-02-24T09:02:30.302Z,26.10
2019-02-24T09:04:59.862Z,26.43
2019-02-24T09:07:29.498Z,26.10
2019-02-24T09:09:59.310Z,23.43
2019-02-24T09:12:29.094Z,28.63
2019-02-24T09:14:58.751Z,22.90
2019-02-24T09:17:28.404Z,27.73
2019-02-24T09:19:59.575Z,23.90
2019-02-24T09:22:29.301Z,22.60
2019-02-24T09:24:59.104Z,30.27
2019-02-24T09:27:28.924Z,30.30
2019-02-24T09:29:58.672Z,28.93
2019-02-24T09:32:28.260Z,24.13
2019-02-24T09:34:58.046Z,26.90
2019-02-24T09:37:27.898Z,27.00
2019-02-24T09:39:57.684Z,18.87
2019-02-24T09:42:27.366Z,33.57
2019-02-24T09:44:57.153Z,27.90
2019-02-24T09:47:27.394Z,20.53
2019-02-24T09:49:57.004Z,22.17
2019-02-24T09:52:26.669Z,20.70
2019-02-24T09:54:56.336Z,30.90
2019-02-24T09:57:26.045Z,23.83
2019-02-24T09:59:55.702Z,27.00
2019-02-24T10:02:25.833Z,24.97
2019-02-24T10:04:55.965Z,23.77
2019-02-24T10:07:25.646Z,24.80
2019-02-24T10:09:55.384Z,23.70
2019-02-24T10:12:24.963Z,22.10
2019-02-24T10:14:54.619Z,22.20
2019-02-24T10:17:25.542Z,21.67
2019-02-24T10:19:55.139Z,24.27
2019-02-24T10:22:24.789Z,20.63
2019-02-24T10:24:54.443Z,20.23
2019-02-24T10:27:25.690Z,19.37
2019-02-24T10:29:55.371Z,21.03
2019-02-24T10:32:25.714Z,24.73
2019-02-24T10:34:55.828Z,19.57
2019-02-24T10:37:25.731Z,19.13
2019-02-24T10:39:55.563Z,22.93
2019-02-24T10:42:25.289Z,19.43
2019-02-24T10:44:55.063Z,18.07
2019-02-24T10:47:24.805Z,17.87
2019-02-24T10:49:54.563Z,16.30
2019-02-24T10:52:24.596Z,17.90
2019-02-24T10:54:54.664Z,17.57
2019-02-24T10:57:24.267Z,16.33
2019-02-24T10:59:54.056Z,18.90
2019-02-24T11:02:23.858Z,19.03
2019-02-24T11:04:53.426Z,19.70
2019-02-24T11:07:23.019Z,17.77
2019-02-24T11:09:52.690Z,20.70
2019-02-24T11:12:22.320Z,16.50
2019-02-24T11:14:51.905Z,16.80
2019-02-24T11:17:21.659Z,18.17
2019-02-24T11:19:51.692Z,16.50
2019-02-24T11:22:21.373Z,22.73
2019-02-24T11:24:51.138Z,17.80
2019-02-24T11:27:20.772Z,18.73
2019-02-24T11:29:50.368Z,16.77
2019-02-24T11:32:20.004Z,16.90
2019-02-24T11:34:49.685Z,16.77
2019-02-24T11:37:19.294Z,21.43
2019-02-24T11:39:49.024Z,17.73
2019-02-24T11:42:18.678Z,14.97
2019-02-24T11:44:48.272Z,14.73
2019-02-24T11:47:17.865Z,17.47
2019-02-24T11:49:47.413Z,15.40
2019-02-24T11:52:17.362Z,15.03
2019-02-24T11:54:47.113Z,13.97
2019-02-24T11:57:16.699Z,11.70
2019-02-24T11:59:46.306Z,12.53
2019-02-24T12:02:16.199Z,12.97
2019-02-24T12:04:45.963Z,12.77
2019-02-24T12:07:16.134Z,16.50
2019-02-24T12:09:45.707Z,12.87
2019-02-24T12:12:15.490Z,13.17
2019-02-24T12:14:45.184Z,13.67
2019-02-24T12:17:14.775Z,12.73
2019-02-24T12:19:46.293Z,12.20
2019-02-24T12:22:16.084Z,13.10
2019-02-24T12:24:46.070Z,14.33
2019-02-24T12:27:17.382Z,17.03
2019-02-24T12:29:47.173Z,13.50
2019-02-24T12:32:16.956Z,14.07
2019-02-24T12:34:47.195Z,18.50
2019-02-24T12:37:17.488Z,16.70
2019-02-24T12:39:50.590Z,15.50
2019-02-24T12:42:20.386Z,14.57
2019-02-24T12:44:50.112Z,14.93
2019-02-24T12:47:19.817Z,14.57
2019-02-24T12:49:49.485Z,14.30
2019-02-24T12:52:20.738Z,14.80
2019-02-24T12:54:50.809Z,14.60
2019-02-24T12:57:20.490Z,16.03
2019-02-24T12:59:50.258Z,19.13
2019-02-24T13:02:20.149Z,13.73
2019-02-24T13:04:49.853Z,17.70
2019-02-24T13:07:19.517Z,14.50
2019-02-24T13:09:49.646Z,13.00
2019-02-24T13:12:19.239Z,12.70
2019-02-24T13:14:48.832Z,13.30
2019-02-24T13:17:18.537Z,19.20
2019-02-24T13:19:48.215Z,12.90
2019-02-24T13:22:17.806Z,13.50
2019-02-24T13:24:47.946Z,13.30
2019-02-24T13:27:17.763Z,15.47
2019-02-24T13:29:47.405Z,14.43
2019-02-24T13:32:17.120Z,14.70
2019-02-24T13:34:46.655Z,12.13
2019-02-24T13:37:16.219Z,16.00
2019-02-24T13:39:45.900Z,15.33
2019-02-24T13:42:15.425Z,13.17
2019-02-24T13:44:44.926Z,15.63
2019-02-24T13:47:15.119Z,17.80
2019-02-24T13:49:44.721Z,15.47
2019-02-24T13:52:14.315Z,15.90
2019-02-24T13:54:44.011Z,15.00
2019-02-24T13:57:13.575Z,16.10
2019-02-24T13:59:43.209Z,15.60
2019-02-24T14:02:12.956Z,18.90
2019-02-24T14:04:42.479Z,17.00
2019-02-24T14:10:02.755Z,17.20
2019-02-24T14:12:32.473Z,15.90
2019-02-24T14:15:01.994Z,18.20
2019-02-24T14:17:31.704Z,17.30
2019-02-24T14:20:01.591Z,15.97
2019-02-24T14:22:31.280Z,19.93
2019-02-24T14:25:01.253Z,21.23
2019-02-24T14:27:31.366Z,20.37
2019-02-24T14:30:01.194Z,16.53
2019-02-24T14:32:33.178Z,20.63
2019-02-24T14:35:03.654Z,19.93
2019-02-24T14:37:33.226Z,27.33
2019-02-24T14:40:02.892Z,22.03
2019-02-24T14:42:32.588Z,16.77
2019-02-24T14:45:02.192Z,16.33
2019-02-24T14:47:34.669Z,17.13
2019-02-24T14:50:04.455Z,21.13
2019-02-24T14:52:34.016Z,16.73
2019-02-24T14:55:04.219Z,18.80
2019-02-24T14:57:33.759Z,15.73
2019-02-24T15:00:05.472Z,14.80
2019-02-24T15:02:42.198Z,15.47
2019-02-24T15:05:11.264Z,18.53
2019-02-24T15:07:42.030Z,14.07
2019-02-24T15:10:18.265Z,15.50
2019-02-24T15:12:47.960Z,13.33
2019-02-24T15:15:21.594Z,18.00
2019-02-24T15:17:51.262Z,12.70
2019-02-24T15:20:22.196Z,13.37
2019-02-24T15:22:52.845Z,15.27
2019-02-24T15:25:22.494Z,18.93
2019-02-24T15:27:52.091Z,14.00
2019-02-24T15:30:33.777Z,12.10
2019-02-24T15:33:04.168Z,22.83
2019-02-24T15:35:33.841Z,19.30
2019-02-24T15:38:04.034Z,15.20
2019-02-24T15:40:33.969Z,14.73
2019-02-24T15:43:03.841Z,14.07
2019-02-24T15:45:33.546Z,16.83
2019-02-24T15:48:03.722Z,11.73
2019-02-24T15:50:33.407Z,16.03
2019-02-24T15:53:03.093Z,16.60
2019-02-24T15:55:32.792Z,17.70
2019-02-24T15:58:02.558Z,16.30
2019-02-24T16:00:32.499Z,19.13
2019-02-24T16:03:02.208Z,19.27
2019-02-24T16:05:32.040Z,16.03
2019-02-24T16:08:01.852Z,20.53
2019-02-24T16:10:31.909Z,16.80
2019-02-24T16:13:02.130Z,19.03
2019-02-24T16:15:31.935Z,24.97
2019-02-24T16:18:01.745Z,24.50
2019-02-24T16:20:35.777Z,21.43
2019-02-24T16:23:06.162Z,21.53
2019-02-24T16:25:36.014Z,24.17
2019-02-24T16:28:06.088Z,21.00
2019-02-24T16:30:36.012Z,22.87
2019-02-24T16:33:10.559Z,22.83
2019-02-24T16:35:37.517Z,23.73
2019-02-24T16:38:07.666Z,27.47
2019-02-24T16:40:37.532Z,25.60
2019-02-24T16:43:07.752Z,32.83
2019-02-24T16:45:37.682Z,38.10
2019-02-24T16:48:07.613Z,24.07
2019-02-24T16:50:38.935Z,26.47
2019-02-24T16:53:09.668Z,27.77
2019-02-24T16:55:40.149Z,26.40
2019-02-24T16:58:10.010Z,25.93
2019-02-24T17:00:40.277Z,36.53
2019-02-24T17:03:10.127Z,32.83
2019-02-24T17:05:40.113Z,27.33
2019-02-24T17:08:10.062Z,33.17
2019-02-24T17:10:40.291Z,36.70
2019-02-24T17:13:10.777Z,39.47
2019-02-24T17:15:40.905Z,37.10
2019-02-24T17:18:10.900Z,43.60
2019-02-24T17:20:40.793Z,38.37
2019-02-24T17:23:10.919Z,37.10
2019-02-24T17:25:41.094Z,38.17
2019-02-24T17:28:11.059Z,42.13
2019-02-24T17:30:45.945Z,38.37
2019-02-24T17:33:15.933Z,43.53
2019-02-24T17:35:46.658Z,41.73
2019-02-24T17:38:16.823Z,35.73
2019-02-24T17:40:47.923Z,34.83
2019-02-24T17:43:17.889Z,48.10
2019-02-24T17:45:49.422Z,35.33
2019-02-24T17:48:19.876Z,35.47
2019-02-24T17:50:50.258Z,37.53
2019-02-24T17:53:20.237Z,48.10
2019-02-24T17:55:50.031Z,52.77
2019-02-24T17:58:20.160Z,60.50
2019-02-24T18:00:55.898Z,36.80
2019-02-24T18:03:26.186Z,40.83
2019-02-24T18:05:55.846Z,39.73
2019-02-24T18:08:28.213Z,44.73
2019-02-24T18:10:56.939Z,41.10
2019-02-24T18:13:26.718Z,56.87
2019-02-24T18:16:00.766Z,58.73
2019-02-24T18:18:30.611Z,35.73
2019-02-24T18:21:02.092Z,42.63
2019-02-24T18:23:31.817Z,38.23
2019-02-24T18:26:01.782Z,34.93
2019-02-24T18:28:31.529Z,37.10
2019-02-24T18:31:02.248Z,47.43
2019-02-24T18:33:32.090Z,43.20
2019-02-24T18:36:02.785Z,35.53
2019-02-24T18:38:32.636Z,47.37
2019-02-24T18:41:02.521Z,44.33
2019-02-24T18:43:32.361Z,40.40
2019-02-24T18:46:02.181Z,47.43
2019-02-24T18:48:33.466Z,31.67
2019-02-24T18:51:03.603Z,34.73
2019-02-24T18:53:34.390Z,45.43
2019-02-24T18:56:04.306Z,37.07
2019-02-24T18:58:34.201Z,40.73
2019-02-24T19:01:03.939Z,28.67
2019-02-24T19:03:33.766Z,36.60
2019-02-24T19:06:03.496Z,35.83
2019-02-24T19:08:33.351Z,24.33
2019-02-24T19:11:03.276Z,31.73
2019-02-24T19:13:33.092Z,23.63
2019-02-24T19:16:03.655Z,34.87
2019-02-24T19:18:52.748Z,31.37
2019-02-24T19:21:22.685Z,31.03
2019-02-24T19:23:52.369Z,37.07
2019-02-24T19:26:22.299Z,26.27
2019-02-24T19:28:53.825Z,25.80
2019-02-24T19:31:23.666Z,36.50
2019-02-24T19:33:55.135Z,25.47
2019-02-24T19:36:25.250Z,32.10
2019-02-24T19:38:55.507Z,24.20
2019-02-24T19:41:25.204Z,23.67
2019-02-24T19:43:55.303Z,28.33
2019-02-24T19:46:25.074Z,23.87
2019-02-24T19:48:54.937Z,30.20
2019-02-24T19:51:24.791Z,24.27
2019-02-24T19:53:54.646Z,27.23
2019-02-24T19:56:24.556Z,21.97
2019-02-24T19:58:54.463Z,25.30
2019-02-24T20:01:24.396Z,26.43
2019-02-24T20:03:55.668Z,29.73
2019-02-24T20:06:25.549Z,29.33
2019-02-24T20:08:56.307Z,27.20
2019-02-24T20:11:25.972Z,23.47
2019-02-24T20:13:57.720Z,26.80
2019-02-24T20:16:27.469Z,25.60
2019-02-24T20:18:57.182Z,39.47
2019-02-24T20:21:28.445Z,26.60
2019-02-24T20:23:58.230Z,18.30
2019-02-24T20:26:28.026Z,47.90
2019-02-24T20:28:58.113Z,23.37
2019-02-24T20:31:27.807Z,21.57
2019-02-24T20:33:57.624Z,30.03
2019-02-24T20:36:28.476Z,31.03
2019-02-24T20:38:58.157Z,24.23
2019-02-24T20:41:27.888Z,33.10
2019-02-24T20:43:57.726Z,23.13
2019-02-24T20:46:27.422Z,23.57
2019-02-24T20:48:57.180Z,22.13
2019-02-24T20:51:27.026Z,25.13
2019-02-24T20:53:56.735Z,19.20
2019-02-24T20:56:26.449Z,20.50
2019-02-24T20:58:56.685Z,21.97
2019-02-24T21:01:27.129Z,20.37
2019-02-24T21:03:56.916Z,19.37
2019-02-24T21:06:26.702Z,21.80
2019-02-24T21:08:56.406Z,25.47
2019-02-24T21:11:26.116Z,24.27
2019-02-24T21:13:56.331Z,25.07
2019-02-24T21:16:26.238Z,30.17
2019-02-24T21:18:56.076Z,23.40
2019-02-24T21:21:26.364Z,23.90
2019-02-24T21:23:57.860Z,25.20
2019-02-24T21:26:27.674Z,20.70
2019-02-24T21:28:57.826Z,19.73
2019-02-24T21:31:27.714Z,19.67
2019-02-24T21:33:57.447Z,20.50
2019-02-24T21:36:28.206Z,22.43
2019-02-24T21:38:58.174Z,20.93
2019-02-24T21:41:29.834Z,22.47
2019-02-24T21:43:59.754Z,22.83
2019-02-24T21:46:29.700Z,25.50
2019-02-24T21:48:59.744Z,25.53
2019-02-24T21:51:30.314Z,26.83
2019-02-24T21:53:59.975Z,25.57
2019-02-24T21:56:29.953Z,27.03
2019-02-24T21:58:59.767Z,23.77
2019-02-24T22:01:29.770Z,25.00
2019-02-24T22:03:59.481Z,24.63
2019-02-24T22:06:29.844Z,29.03
2019-02-24T22:08:59.710Z,25.33
2019-02-24T22:11:31.021Z,28.47
2019-02-24T22:14:01.934Z,26.77
2019-02-24T22:16:31.663Z,25.67
2019-02-24T22:19:01.233Z,23.33
2019-02-24T22:21:31.062Z,19.30
2019-02-24T22:24:00.749Z,24.43
2019-02-24T22:26:30.403Z,25.03
2019-02-24T22:29:00.119Z,23.62
2019-02-24T22:31:29.783Z,23.57
2019-02-24T22:33:59.386Z,24.13
2019-02-24T22:36:29.554Z,26.02
2019-02-24T22:38:59.164Z,25.50
2019-02-24T22:41:28.659Z,23.55
2019-02-24T22:43:58.793Z,23.60
2019-02-24T22:46:28.310Z,26.67
2019-02-24T22:48:57.958Z,24.45
2019-02-24T22:51:27.718Z,28.03
2019-02-24T22:53:57.468Z,21.53
2019-02-24T22:56:27.106Z,24.53
2019-02-24T22:58:57.196Z,25.68
2019-02-24T23:01:28.795Z,20.47
2019-02-24T23:04:12.090Z,22.30
2019-02-24T23:06:41.904Z,22.10
2019-02-24T23:09:14.097Z,24.37
2019-02-24T23:11:43.896Z,23.85
2019-02-24T23:14:13.648Z,25.62
2019-02-24T23:16:43.383Z,23.70
2019-02-24T23:19:13.586Z,23.40
2019-02-24T23:21:43.178Z,26.27
2019-02-24T23:24:12.723Z,23.62
2019-02-24T23:26:42.589Z,22.30
2019-02-24T23:29:12.319Z,22.52
2019-02-24T23:31:42.000Z,21.97
2019-02-24T23:34:11.594Z,20.80
2019-02-24T23:36:41.361Z,27.30
2019-02-24T23:39:13.406Z,27.55
2019-02-24T23:41:43.482Z,23.67
2019-02-24T23:44:13.217Z,20.12
2019-02-24T23:46:42.731Z,19.67
2019-02-24T23:49:12.304Z,29.02
2019-02-24T23:51:41.912Z,22.82
2019-02-24T23:54:11.496Z,24.05
2019-02-24T23:56:41.079Z,24.98
2019-02-24T23:59:29.968Z,20.62
